Aerbrava en el facebook Aerbrava en el twitter Aerbrava Google+ Aerbrava instagram Aerbrava en el youtube Aerbrava tumblr Aerbrava flikr Aerbrava pinterest
Aerbrava in English aerbrava en Español
Escola de Pilots
Telèfon 972234126 972 23 41 26
 
Aerbrava in English aerbrava en Español
Aerbrava - meteorologia

Informació meteorològica aeronàutica

 

En aquest apartat apareix la informació meteorològica aeronàutica que és utilitzada a les pràctiques dels alumnes de l’Escola de Pilots del nostre centre durant la seva formació, pel que pot no ser actual i s’hauria d’utilitzar pel seu propi compte i risc. AERBRAVA no es fa responsable del seu ús.

 

TEMPS ACTUAL

Satèl·lit Meteorològic

sat24.com

Servei Meteorològic de Catalunya

 

LEGE 220244Z 09012G22KT 040V120 2500 TS +SHRA FEW008 FEW010CB BKN015 10/09 Q1022
LEGE 220230Z 10012KT 060V160 9999 TS FEW010CB BKN013 12/11 Q1022 RERA
LEGE 220208Z 09016G27KT 050V130 9999 TS -RA FEW010CB BKN012 12/11 Q1022
LEGE 220200Z 09016G29KT 040V120 3500 TS RA FEW010CB BKN012 12/11 Q1022
LEGE 220151Z 09014G29KT 050V120 9000 TS -RA FEW010CB BKN014 12/11 Q1022
LEGE 220135Z 08013KT 050V110 6000 TS +RA FEW010CB BKN011 11/11 Q1022
LEGE 220130Z 08018G30KT 030V110 8000 TS RA FEW010CB OVC011 12/11 Q1022
LEGE 220108Z 07018G28KT 040V110 9000 TS -RA FEW010CB OVC011 12/11 Q1022
LEGE 220100Z 07016G26KT 030V100 4500 TS RA FEW010CB BKN011 11/10 Q1022
LEGE 220052Z 07016G26KT 030V110 5000 TS RA FEW010CB BKN011 11/10 Q1022
LEGE 220034Z 07019G29KT 030V100 2000 TS +RA FEW010CB OVC012 11/10 Q1023
LEGE 220030Z 07020G34KT 040V110 9000 TSRA FEW010CB OVC012 11/10 Q1023
LEGE 220008Z 08016G28KT 030V110 4500 TSRA FEW010CB BKN011 11/10 Q1024
LEGE 220000Z 07018G32KT 040V140 9000 RA BKN011 SCT022 11/10 Q1023
LEGE 212330Z 06020G32KT 030V100 7000 RA FEW009 SCT013 BKN022 11/10 Q1024
LEGE 212305Z 06020KT 030V090 3800 RA BR FEW009 SCT013 BKN022 11/10 Q1024
TAF AMD LEGE 220255Z 2202/2224 06025G35KT 7000 RA BKN010 TX15/2213Z TN08/2206Z   TEMPO 2203/2206 2000 TSRA FEW010CB   BECMG 2203/2205 09010KT

Aviation Weather

 
Aerbrava en el facebook Aerbrava en el twitter Aerbrava Google+ Aerbrava instagram Aerbrava en el youtube Aerbrava tumblr Aerbrava flikr Aerbrava pinterest

¡CSS Vàlid!